Aviation Digital Data Service (ADDS)

Output produced by TAFs form (1741 UTC 03 December 2016)
found at http://aviationweather.gov/adds/tafs/
 
KFMN 031632Z 0317/0412 VRB04KT P6SM SCT015 SCT035 
     TEMPO 0316/0319 BKN007 
     FM032000 28013KT P6SM FEW080 
     FM040100 27008KT P6SM SKC 
     FM040800 08006KT P6SM SKC